RJCB

Tokachi-Obihiro Airport

Obihiro, Japan
TAF RJCB 251708Z 2518/2700 34004KT 9999 FEW015 BKN025 BECMG 2603/2605 16009KT TEMPO 2612/2615 1500 BR FEW002 BKN004 BECMG 2612/2615 02004KT TEMPO 2615/2621 0700 FG VV001 TEMPO 2621/2700 2000 BR FEW002 BKN005
Issued Valid From Valid To
Sep-25 @ 17:08 UTC
(45 minutes ago)
Sep-25 @ 18:00 UTC
(in 7 minutes)
Sep-27 @ 00:00 UTC
(-1 days ago)
Sep-25 @ 18:00 to Sep-26 @ 03:00
TAF RJCB 251708Z 2518/2700 34004KT 9999 FEW015 BKN025
Wind Visibility Clouds
340° at 4 knots 10,000+ meters
  • Few at 1,500' AGL
  • Broken at 2,500' AGL
Becoming Sep-26 @ 03:00 to Sep-26 @ 12:00
BECMG 2603/2605 16009KT
Wind Visibility Clouds
160° at 9 knots 10,000+ meters
  • Few at 1,500' AGL
  • Broken at 2,500' AGL
Temporary Sep-26 @ 12:00 to Sep-26 @ 15:00
TEMPO 2612/2615 1500 BR FEW002 BKN004
Visibility Clouds Conditions
1,497 meters
  • Few at 200' AGL
  • Broken at 400' AGL
  • Mist
Becoming Sep-26 @ 12:00 to Sep-27 @ 00:00
BECMG 2612/2615 02004KT
Wind Visibility Clouds
20° at 4 knots 10,000+ meters
  • Few at 1,500' AGL
  • Broken at 2,500' AGL
Temporary Sep-26 @ 15:00 to Sep-26 @ 21:00
TEMPO 2615/2621 0700 FG VV001
Visibility Clouds Conditions
692 meters
  • Vertical visibility at 100' AGL
  • Fog
Temporary Sep-26 @ 21:00 to Sep-27 @ 00:00
TEMPO 2621/2700 2000 BR FEW002 BKN005
Visibility Clouds Conditions
1,996 meters
  • Few at 200' AGL
  • Broken at 500' AGL
  • Mist
TAF RJCB 251708Z 2518/2700 34004KT 9999 FEW015 BKN025 BECMG 2603/2605 16009KT TEMPO 2612/2615 1500 BR FEW002 BKN004 BECMG 2612/2615 02004KT TEMPO 2615/2621 0700 FG VV001 TEMPO 2621/2700 2000 BR FEW002 BKN005
Issued Sep-25 @ 17:08 UTC
(45 minutes ago)
Valid From Sep-25 @ 18:00 UTC
(in 7 minutes)
Valid To Sep-27 @ 00:00 UTC
(-1 days ago)
Sep-25 @ 18:00 - Sep-26 @ 03:00
Wind Visibility
340° at 4 knots 10,000+ meters
Clouds
  • Few at 1,500' AGL
  • Broken at 2,500' AGL
Becoming Sep-26 @ 03:00 - Sep-26 @ 12:00
Wind Visibility
160° at 9 knots 10,000+ meters
Clouds
  • Few at 1,500' AGL
  • Broken at 2,500' AGL
Temporary Sep-26 @ 12:00 - Sep-26 @ 15:00
Clouds
  • Few at 200' AGL
  • Broken at 400' AGL
Conditions
  • Mist
Becoming Sep-26 @ 12:00 - Sep-27 @ 00:00
Wind Visibility
20° at 4 knots 10,000+ meters
Clouds
  • Few at 1,500' AGL
  • Broken at 2,500' AGL
Temporary Sep-26 @ 15:00 - Sep-26 @ 21:00
Clouds
  • Vertical visibility at 100' AGL
Conditions
  • Fog
Temporary Sep-26 @ 21:00 - Sep-27 @ 00:00
Clouds
  • Few at 200' AGL
  • Broken at 500' AGL
Conditions
  • Mist